sensor_id;sensor_type;location;lat;lon;timestamp;P1;durP1;ratioP1;P2;durP2;ratioP2
62997;SDS011;55949;52.590;7.330;2022-10-01T00:00:24;3.70;;;2.15;;
62997;SDS011;55949;52.590;7.330;2022-10-01T00:01:25;4.00;;;2.42;;
62997;SDS011;55949;52.590;7.330;2022-10-01T00:02:26;6.75;;;2.20;;
62997;SDS011;55949;52.590;7.330;2022-10-01T00:03:27;6.68;;;2.40;;
62997;SDS011;55949;52.590;7.330;2022-10-01T00:04:29;3.55;;;2.20;;
62997;SDS011;55949;52.590;7.330;2022-10-01T00:05:29;4.40;;;2.50;;
62997;SDS011;55949;52.590;7.330;2022-10-01T00:06:30;4.47;;;2.17;;
62997;SDS011;55949;52.590;7.330;2022-10-01T00:07:42;5.03;;;2.65;;
62997;SDS011;55949;52.590;7.330;2022-10-01T00:08:44;5.25;;;2.22;;
62997;SDS011;55949;52.590;7.330;2022-10-01T00:09:47;4.45;;;2.50;;
62997;SDS011;55949;52.590;7.330;2022-10-01T00:10:48;4.95;;;2.50;;
62997;SDS011;55949;52.590;7.330;2022-10-01T00:11:49;6.25;;;2.30;;
62997;SDS011;55949;52.590;7.330;2022-10-01T00:12:50;5.25;;;2.97;;
62997;SDS011;55949;52.590;7.330;2022-10-01T00:13:51;6.15;;;2.35;;
62997;SDS011;55949;52.590;7.330;2022-10-01T00:14:53;4.88;;;2.25;;
62997;SDS011;55949;52.590;7.330;2022-10-01T00:15:53;5.57;;;1.98;;
62997;SDS011;55949;52.590;7.330;2022-10-01T00:16:54;5.32;;;2.33;;
62997;SDS011;55949;52.590;7.330;2022-10-01T00:17:55;4.97;;;2.33;;
62997;SDS011;55949;52.590;7.330;2022-10-01T00:18:56;7.47;;;2.13;;
62997;SDS011;55949;52.590;7.330;2022-10-01T00:19:57;3.47;;;2.20;;
62997;SDS011;55949;52.590;7.330;2022-10-01T00:20:57;6.10;;;2.10;;
62997;SDS011;55949;52.590;7.330;2022-10-01T00:21:58;4.47;;;2.20;;
62997;SDS011;55949;52.590;7.330;2022-10-01T00:22:59;4.10;;;2.75;;
62997;SDS011;55949;52.590;7.330;2022-10-01T00:24:00;6.25;;;2.78;;
62997;SDS011;55949;52.590;7.330;2022-10-01T00:25:03;4.50;;;2.80;;
62997;SDS011;55949;52.590;7.330;2022-10-01T00:27:10;5.00;;;2.60;;
62997;SDS011;55949;52.590;7.330;2022-10-01T00:28:11;6.15;;;2.65;;
62997;SDS011;55949;52.590;7.330;2022-10-01T00:29:13;5.57;;;2.88;;
62997;SDS011;55949;52.590;7.330;2022-10-01T00:30:14;5.50;;;2.97;;
62997;SDS011;55949;52.590;7.330;2022-10-01T00:31:15;5.63;;;2.90;;
62997;SDS011;55949;52.590;7.330;2022-10-01T00:32:15;3.97;;;2.53;;
62997;SDS011;55949;52.590;7.330;2022-10-01T00:33:16;5.10;;;2.63;;
62997;SDS011;55949;52.590;7.330;2022-10-01T00:34:17;4.50;;;2.35;;
62997;SDS011;55949;52.590;7.330;2022-10-01T00:35:17;6.28;;;3.00;;
62997;SDS011;55949;52.590;7.330;2022-10-01T00:36:19;6.47;;;2.97;;
62997;SDS011;55949;52.590;7.330;2022-10-01T00:37:20;4.47;;;2.83;;
62997;SDS011;55949;52.590;7.330;2022-10-01T00:38:21;5.95;;;3.03;;
62997;SDS011;55949;52.590;7.330;2022-10-01T00:39:22;6.40;;;3.00;;
62997;SDS011;55949;52.590;7.330;2022-10-01T00:40:22;4.63;;;2.78;;
62997;SDS011;55949;52.590;7.330;2022-10-01T00:41:23;7.38;;;3.03;;
62997;SDS011;55949;52.590;7.330;2022-10-01T00:42:25;5.63;;;3.10;;
62997;SDS011;55949;52.590;7.330;2022-10-01T00:43:27;6.75;;;3.22;;
62997;SDS011;55949;52.590;7.330;2022-10-01T00:44:37;5.22;;;2.92;;
62997;SDS011;55949;52.590;7.330;2022-10-01T00:45:37;4.88;;;3.72;;
62997;SDS011;55949;52.590;7.330;2022-10-01T00:46:42;8.48;;;3.60;;
62997;SDS011;55949;52.590;7.330;2022-10-01T00:47:49;7.00;;;3.80;;
62997;SDS011;55949;52.590;7.330;2022-10-01T00:48:59;6.28;;;3.40;;
62997;SDS011;55949;52.590;7.330;2022-10-01T00:50:08;4.90;;;3.22;;
62997;SDS011;55949;52.590;7.330;2022-10-01T00:51:15;4.57;;;3.33;;
62997;SDS011;55949;52.590;7.330;2022-10-01T00:52:17;6.60;;;3.72;;
62997;SDS011;55949;52.590;7.330;2022-10-01T00:53:22;6.03;;;3.75;;
62997;SDS011;55949;52.590;7.330;2022-10-01T00:54:25;6.47;;;3.17;;
62997;SDS011;55949;52.590;7.330;2022-10-01T00:55:32;6.50;;;3.58;;
62997;SDS011;55949;52.590;7.330;2022-10-01T00:56:35;8.00;;;3.47;;
62997;SDS011;55949;52.590;7.330;2022-10-01T00:57:37;6.13;;;3.45;;
62997;SDS011;55949;52.590;7.330;2022-10-01T00:58:39;6.00;;;3.75;;
62997;SDS011;55949;52.590;7.330;2022-10-01T00:59:41;7.63;;;4.20;;
62997;SDS011;55949;52.590;7.330;2022-10-01T01:00:43;6.63;;;3.75;;
62997;SDS011;55949;52.590;7.330;2022-10-01T01:01:45;10.65;;;4.13;;
62997;SDS011;55949;52.590;7.330;2022-10-01T01:02:45;7.70;;;4.28;;
62997;SDS011;55949;52.590;7.330;2022-10-01T01:03:46;5.38;;;3.67;;
62997;SDS011;55949;52.590;7.330;2022-10-01T01:04:47;6.93;;;3.90;;
62997;SDS011;55949;52.590;7.330;2022-10-01T01:05:48;5.90;;;4.25;;
62997;SDS011;55949;52.590;7.330;2022-10-01T01:06:56;7.15;;;4.00;;
62997;SDS011;55949;52.590;7.330;2022-10-01T01:07:59;7.15;;;3.85;;
62997;SDS011;55949;52.590;7.330;2022-10-01T01:09:00;7.07;;;3.90;;
62997;SDS011;55949;52.590;7.330;2022-10-01T01:10:02;5.88;;;4.50;;
62997;SDS011;55949;52.590;7.330;2022-10-01T01:14:09;6.30;;;4.45;;
62997;SDS011;55949;52.590;7.330;2022-10-01T01:17:00;5.20;;;4.18;;
62997;SDS011;55949;52.590;7.330;2022-10-01T01:21:56;5.60;;;4.47;;
62997;SDS011;55949;52.590;7.330;2022-10-01T01:28:22;11.57;;;4.68;;
62997;SDS011;55949;52.590;7.330;2022-10-01T01:29:36;9.23;;;5.50;;
62997;SDS011;55949;52.590;7.330;2022-10-01T01:31:04;9.23;;;5.13;;
62997;SDS011;55949;52.590;7.330;2022-10-01T01:32:11;9.82;;;5.53;;
62997;SDS011;55949;52.590;7.330;2022-10-01T01:33:31;8.02;;;5.75;;
62997;SDS011;55949;52.590;7.330;2022-10-01T01:34:35;7.05;;;5.13;;
62997;SDS011;55949;52.590;7.330;2022-10-01T01:35:53;7.78;;;5.57;;
62997;SDS011;55949;52.590;7.330;2022-10-01T01:37:02;10.90;;;5.43;;
62997;SDS011;55949;52.590;7.330;2022-10-01T01:38:12;7.43;;;5.53;;
62997;SDS011;55949;52.590;7.330;2022-10-01T01:39:17;6.60;;;5.00;;
62997;SDS011;55949;52.590;7.330;2022-10-01T01:40:20;9.02;;;5.68;;
62997;SDS011;55949;52.590;7.330;2022-10-01T01:41:23;9.05;;;5.90;;
62997;SDS011;55949;52.590;7.330;2022-10-01T01:42:29;9.48;;;5.55;;
62997;SDS011;55949;52.590;7.330;2022-10-01T01:43:37;7.45;;;5.75;;
62997;SDS011;55949;52.590;7.330;2022-10-01T01:44:41;8.38;;;6.78;;
62997;SDS011;55949;52.590;7.330;2022-10-01T01:45:49;9.07;;;6.10;;
62997;SDS011;55949;52.590;7.330;2022-10-01T01:46:53;8.02;;;5.43;;
62997;SDS011;55949;52.590;7.330;2022-10-01T01:47:56;8.93;;;6.15;;
62997;SDS011;55949;52.590;7.330;2022-10-01T01:48:59;10.95;;;5.38;;
62997;SDS011;55949;52.590;7.330;2022-10-01T01:50:03;8.90;;;5.53;;
62997;SDS011;55949;52.590;7.330;2022-10-01T01:51:08;8.82;;;6.38;;
62997;SDS011;55949;52.590;7.330;2022-10-01T01:52:13;10.25;;;6.18;;
62997;SDS011;55949;52.590;7.330;2022-10-01T01:53:15;9.95;;;6.47;;
62997;SDS011;55949;52.590;7.330;2022-10-01T01:54:16;10.93;;;7.00;;
62997;SDS011;55949;52.590;7.330;2022-10-01T01:55:20;11.63;;;6.45;;
62997;SDS011;55949;52.590;7.330;2022-10-01T01:56:23;11.13;;;6.80;;
62997;SDS011;55949;52.590;7.330;2022-10-01T01:57:24;8.13;;;6.70;;
62997;SDS011;55949;52.590;7.330;2022-10-01T01:58:26;10.32;;;6.28;;
62997;SDS011;55949;52.590;7.330;2022-10-01T01:59:27;8.05;;;6.13;;
62997;SDS011;55949;52.590;7.330;2022-10-01T02:00:28;9.93;;;6.95;;
62997;SDS011;55949;52.590;7.330;2022-10-01T02:01:32;10.27;;;7.13;;
62997;SDS011;55949;52.590;7.330;2022-10-01T02:02:33;9.15;;;6.38;;
62997;SDS011;55949;52.590;7.330;2022-10-01T02:03:38;10.30;;;6.68;;
62997;SDS011;55949;52.590;7.330;2022-10-01T02:04:43;9.15;;;6.57;;
62997;SDS011;55949;52.590;7.330;2022-10-01T02:08:33;11.23;;;6.90;;
62997;SDS011;55949;52.590;7.330;2022-10-01T02:10:02;9.95;;;6.57;;
62997;SDS011;55949;52.590;7.330;2022-10-01T02:11:30;12.02;;;6.97;;
62997;SDS011;55949;52.590;7.330;2022-10-01T02:16:25;9.90;;;7.53;;
62997;SDS011;55949;52.590;7.330;2022-10-01T02:19:04;10.82;;;6.88;;
62997;SDS011;55949;52.590;7.330;2022-10-01T02:20:19;12.13;;;7.07;;
62997;SDS011;55949;52.590;7.330;2022-10-01T02:22:55;10.63;;;6.75;;
62997;SDS011;55949;52.590;7.330;2022-10-01T02:24:01;12.00;;;7.28;;
62997;SDS011;55949;52.590;7.330;2022-10-01T02:25:07;11.35;;;7.78;;
62997;SDS011;55949;52.590;7.330;2022-10-01T02:26:11;12.32;;;7.03;;
62997;SDS011;55949;52.590;7.330;2022-10-01T02:28:02;11.10;;;8.07;;
62997;SDS011;55949;52.590;7.330;2022-10-01T02:28:43;9.57;;;7.10;;
62997;SDS011;55949;52.590;7.330;2022-10-01T02:29:48;11.85;;;8.20;;
62997;SDS011;55949;52.590;7.330;2022-10-01T02:30:50;12.15;;;8.05;;
62997;SDS011;55949;52.590;7.330;2022-10-01T02:31:54;12.35;;;7.97;;
62997;SDS011;55949;52.590;7.330;2022-10-01T02:32:56;11.10;;;7.18;;
62997;SDS011;55949;52.590;7.330;2022-10-01T02:34:00;10.00;;;7.32;;
62997;SDS011;55949;52.590;7.330;2022-10-01T02:35:04;11.60;;;8.15;;
62997;SDS011;55949;52.590;7.330;2022-10-01T02:36:08;9.88;;;6.82;;
62997;SDS011;55949;52.590;7.330;2022-10-01T02:37:11;12.50;;;8.25;;
62997;SDS011;55949;52.590;7.330;2022-10-01T02:38:13;8.25;;;6.88;;
62997;SDS011;55949;52.590;7.330;2022-10-01T02:39:16;11.20;;;7.53;;
62997;SDS011;55949;52.590;7.330;2022-10-01T02:40:21;9.60;;;7.25;;
62997;SDS011;55949;52.590;7.330;2022-10-01T02:41:28;11.25;;;6.82;;
62997;SDS011;55949;52.590;7.330;2022-10-01T02:42:33;10.32;;;7.78;;
62997;SDS011;55949;52.590;7.330;2022-10-01T02:43:38;11.50;;;7.30;;
62997;SDS011;55949;52.590;7.330;2022-10-01T02:44:50;12.00;;;7.55;;
62997;SDS011;55949;52.590;7.330;2022-10-01T02:45:53;12.95;;;7.90;;
62997;SDS011;55949;52.590;7.330;2022-10-01T02:48:27;13.57;;;7.85;;
62997;SDS011;55949;52.590;7.330;2022-10-01T02:49:28;11.43;;;7.43;;
62997;SDS011;55949;52.590;7.330;2022-10-01T02:50:31;11.90;;;7.35;;
62997;SDS011;55949;52.590;7.330;2022-10-01T02:52:40;10.27;;;7.05;;
62997;SDS011;55949;52.590;7.330;2022-10-01T02:53:48;10.30;;;6.75;;
62997;SDS011;55949;52.590;7.330;2022-10-01T02:54:59;12.90;;;7.68;;
62997;SDS011;55949;52.590;7.330;2022-10-01T02:56:08;10.18;;;7.10;;
62997;SDS011;55949;52.590;7.330;2022-10-01T02:57:14;11.40;;;6.57;;
62997;SDS011;55949;52.590;7.330;2022-10-01T02:58:30;10.95;;;6.88;;
62997;SDS011;55949;52.590;7.330;2022-10-01T02:59:31;13.52;;;7.88;;
62997;SDS011;55949;52.590;7.330;2022-10-01T03:00:31;11.68;;;7.57;;
62997;SDS011;55949;52.590;7.330;2022-10-01T03:01:33;14.10;;;7.28;;
62997;SDS011;55949;52.590;7.330;2022-10-01T03:02:34;12.82;;;8.10;;
62997;SDS011;55949;52.590;7.330;2022-10-01T03:03:35;9.07;;;7.05;;
62997;SDS011;55949;52.590;7.330;2022-10-01T03:04:36;12.10;;;7.72;;
62997;SDS011;55949;52.590;7.330;2022-10-01T03:05:37;10.13;;;7.38;;
62997;SDS011;55949;52.590;7.330;2022-10-01T03:06:38;11.73;;;8.07;;
62997;SDS011;55949;52.590;7.330;2022-10-01T03:07:38;11.80;;;7.88;;
62997;SDS011;55949;52.590;7.330;2022-10-01T03:08:39;10.15;;;7.05;;
62997;SDS011;55949;52.590;7.330;2022-10-01T03:09:40;11.77;;;7.55;;
62997;SDS011;55949;52.590;7.330;2022-10-01T03:10:41;10.45;;;6.88;;
62997;SDS011;55949;52.590;7.330;2022-10-01T03:11:42;10.65;;;7.60;;
62997;SDS011;55949;52.590;7.330;2022-10-01T03:12:43;11.18;;;7.60;;
62997;SDS011;55949;52.590;7.330;2022-10-01T03:13:45;12.02;;;8.10;;
62997;SDS011;55949;52.590;7.330;2022-10-01T03:14:46;12.75;;;7.82;;
62997;SDS011;55949;52.590;7.330;2022-10-01T03:15:47;11.27;;;7.60;;
62997;SDS011;55949;52.590;7.330;2022-10-01T03:16:47;15.98;;;8.98;;
62997;SDS011;55949;52.590;7.330;2022-10-01T03:17:51;12.73;;;7.10;;
62997;SDS011;55949;52.590;7.330;2022-10-01T03:18:52;15.10;;;7.68;;
62997;SDS011;55949;52.590;7.330;2022-10-01T03:19:53;10.68;;;7.93;;
62997;SDS011;55949;52.590;7.330;2022-10-01T03:20:54;12.32;;;8.45;;
62997;SDS011;55949;52.590;7.330;2022-10-01T03:21:54;11.50;;;7.90;;
62997;SDS011;55949;52.590;7.330;2022-10-01T03:22:55;14.07;;;8.80;;
62997;SDS011;55949;52.590;7.330;2022-10-01T03:23:56;12.98;;;7.82;;
62997;SDS011;55949;52.590;7.330;2022-10-01T03:24:56;13.60;;;8.35;;
62997;SDS011;55949;52.590;7.330;2022-10-01T03:25:57;11.13;;;7.63;;
62997;SDS011;55949;52.590;7.330;2022-10-01T03:26:58;13.25;;;7.55;;
62997;SDS011;55949;52.590;7.330;2022-10-01T03:27:59;12.63;;;8.45;;
62997;SDS011;55949;52.590;7.330;2022-10-01T03:29:00;12.05;;;8.15;;
62997;SDS011;55949;52.590;7.330;2022-10-01T03:30:01;11.35;;;7.90;;
62997;SDS011;55949;52.590;7.330;2022-10-01T03:31:06;11.45;;;8.27;;
62997;SDS011;55949;52.590;7.330;2022-10-01T03:32:08;8.85;;;6.28;;
62997;SDS011;55949;52.590;7.330;2022-10-01T03:33:09;11.75;;;7.50;;
62997;SDS011;55949;52.590;7.330;2022-10-01T03:34:09;10.80;;;8.30;;
62997;SDS011;55949;52.590;7.330;2022-10-01T03:35:12;12.48;;;7.82;;
62997;SDS011;55949;52.590;7.330;2022-10-01T03:36:13;11.95;;;7.07;;
62997;SDS011;55949;52.590;7.330;2022-10-01T03:37:14;12.85;;;7.47;;
62997;SDS011;55949;52.590;7.330;2022-10-01T03:38:14;10.55;;;7.88;;
62997;SDS011;55949;52.590;7.330;2022-10-01T03:39:15;12.95;;;7.22;;
62997;SDS011;55949;52.590;7.330;2022-10-01T03:40:16;9.77;;;7.15;;
62997;SDS011;55949;52.590;7.330;2022-10-01T03:41:17;8.30;;;6.53;;
62997;SDS011;55949;52.590;7.330;2022-10-01T03:42:17;8.25;;;5.72;;
62997;SDS011;55949;52.590;7.330;2022-10-01T03:43:18;9.52;;;6.88;;
62997;SDS011;55949;52.590;7.330;2022-10-01T03:44:19;7.85;;;6.45;;
62997;SDS011;55949;52.590;7.330;2022-10-01T03:45:20;9.32;;;6.20;;
62997;SDS011;55949;52.590;7.330;2022-10-01T03:46:21;9.55;;;6.15;;
62997;SDS011;55949;52.590;7.330;2022-10-01T03:47:22;10.95;;;6.68;;
62997;SDS011;55949;52.590;7.330;2022-10-01T03:48:23;8.98;;;6.60;;
62997;SDS011;55949;52.590;7.330;2022-10-01T03:49:24;10.15;;;6.90;;
62997;SDS011;55949;52.590;7.330;2022-10-01T03:50:24;8.50;;;6.35;;
62997;SDS011;55949;52.590;7.330;2022-10-01T03:51:26;9.55;;;6.65;;
62997;SDS011;55949;52.590;7.330;2022-10-01T03:52:27;8.65;;;6.32;;
62997;SDS011;55949;52.590;7.330;2022-10-01T03:53:28;10.98;;;7.68;;
62997;SDS011;55949;52.590;7.330;2022-10-01T03:54:30;10.05;;;6.82;;
62997;SDS011;55949;52.590;7.330;2022-10-01T03:55:31;10.25;;;6.95;;
62997;SDS011;55949;52.590;7.330;2022-10-01T03:56:32;12.20;;;8.05;;
62997;SDS011;55949;52.590;7.330;2022-10-01T03:57:33;9.77;;;6.95;;
62997;SDS011;55949;52.590;7.330;2022-10-01T03:58:34;10.18;;;7.20;;
62997;SDS011;55949;52.590;7.330;2022-10-01T03:59:34;10.68;;;6.95;;
62997;SDS011;55949;52.590;7.330;2022-10-01T04:00:35;11.45;;;7.30;;
62997;SDS011;55949;52.590;7.330;2022-10-01T04:01:36;11.57;;;7.55;;
62997;SDS011;55949;52.590;7.330;2022-10-01T04:02:38;9.93;;;6.82;;
62997;SDS011;55949;52.590;7.330;2022-10-01T04:03:38;10.40;;;6.93;;
62997;SDS011;55949;52.590;7.330;2022-10-01T04:04:40;10.90;;;7.57;;
62997;SDS011;55949;52.590;7.330;2022-10-01T04:05:41;10.73;;;6.63;;
62997;SDS011;55949;52.590;7.330;2022-10-01T04:06:43;9.15;;;6.50;;
62997;SDS011;55949;52.590;7.330;2022-10-01T04:07:44;8.10;;;6.30;;
62997;SDS011;55949;52.590;7.330;2022-10-01T04:08:45;11.32;;;7.07;;
62997;SDS011;55949;52.590;7.330;2022-10-01T04:09:45;11.77;;;7.25;;
62997;SDS011;55949;52.590;7.330;2022-10-01T04:10:46;10.05;;;7.28;;
62997;SDS011;55949;52.590;7.330;2022-10-01T04:11:48;8.65;;;6.47;;
62997;SDS011;55949;52.590;7.330;2022-10-01T04:12:49;9.07;;;6.13;;
62997;SDS011;55949;52.590;7.330;2022-10-01T04:13:50;10.52;;;6.55;;
62997;SDS011;55949;52.590;7.330;2022-10-01T04:14:51;9.65;;;6.55;;
62997;SDS011;55949;52.590;7.330;2022-10-01T04:15:52;10.65;;;6.82;;
62997;SDS011;55949;52.590;7.330;2022-10-01T04:16:52;9.52;;;6.38;;
62997;SDS011;55949;52.590;7.330;2022-10-01T04:17:53;9.18;;;6.57;;
62997;SDS011;55949;52.590;7.330;2022-10-01T04:18:54;9.98;;;6.15;;
62997;SDS011;55949;52.590;7.330;2022-10-01T04:19:54;9.10;;;6.78;;
62997;SDS011;55949;52.590;7.330;2022-10-01T04:20:56;9.60;;;6.63;;
62997;SDS011;55949;52.590;7.330;2022-10-01T04:21:57;8.93;;;5.78;;
62997;SDS011;55949;52.590;7.330;2022-10-01T04:22:58;9.18;;;5.85;;
62997;SDS011;55949;52.590;7.330;2022-10-01T04:23:59;9.98;;;6.45;;
62997;SDS011;55949;52.590;7.330;2022-10-01T04:25:02;8.98;;;6.55;;
62997;SDS011;55949;52.590;7.330;2022-10-01T04:26:02;10.00;;;6.18;;
62997;SDS011;55949;52.590;7.330;2022-10-01T04:27:03;7.72;;;5.80;;
62997;SDS011;55949;52.590;7.330;2022-10-01T04:28:04;7.95;;;6.10;;
62997;SDS011;55949;52.590;7.330;2022-10-01T04:29:07;9.95;;;5.90;;
62997;SDS011;55949;52.590;7.330;2022-10-01T04:30:08;6.88;;;5.80;;
62997;SDS011;55949;52.590;7.330;2022-10-01T04:31:09;7.35;;;5.88;;
62997;SDS011;55949;52.590;7.330;2022-10-01T04:32:25;8.18;;;6.13;;
62997;SDS011;55949;52.590;7.330;2022-10-01T04:33:28;8.85;;;5.53;;
62997;SDS011;55949;52.590;7.330;2022-10-01T04:34:29;8.95;;;6.75;;
62997;SDS011;55949;52.590;7.330;2022-10-01T04:35:48;8.68;;;5.82;;
62997;SDS011;55949;52.590;7.330;2022-10-01T04:36:49;8.93;;;6.03;;
62997;SDS011;55949;52.590;7.330;2022-10-01T04:37:56;8.57;;;6.10;;
62997;SDS011;55949;52.590;7.330;2022-10-01T04:39:02;8.93;;;5.88;;
62997;SDS011;55949;52.590;7.330;2022-10-01T04:40:03;7.35;;;5.97;;
62997;SDS011;55949;52.590;7.330;2022-10-01T04:41:05;8.98;;;5.97;;
62997;SDS011;55949;52.590;7.330;2022-10-01T04:42:06;6.80;;;5.43;;
62997;SDS011;55949;52.590;7.330;2022-10-01T04:43:07;9.73;;;5.90;;
62997;SDS011;55949;52.590;7.330;2022-10-01T04:44:08;7.28;;;5.60;;
62997;SDS011;55949;52.590;7.330;2022-10-01T04:45:09;7.93;;;5.88;;
62997;SDS011;55949;52.590;7.330;2022-10-01T04:46:11;7.55;;;5.57;;
62997;SDS011;55949;52.590;7.330;2022-10-01T04:47:11;7.53;;;5.75;;
62997;SDS011;55949;52.590;7.330;2022-10-01T04:48:12;7.35;;;5.35;;
62997;SDS011;55949;52.590;7.330;2022-10-01T04:49:13;8.02;;;5.70;;
62997;SDS011;55949;52.590;7.330;2022-10-01T04:50:14;8.50;;;5.45;;
62997;SDS011;55949;52.590;7.330;2022-10-01T04:51:16;8.95;;;5.53;;
62997;SDS011;55949;52.590;7.330;2022-10-01T04:52:17;8.65;;;5.50;;
62997;SDS011;55949;52.590;7.330;2022-10-01T04:53:17;6.32;;;4.80;;
62997;SDS011;55949;52.590;7.330;2022-10-01T04:54:18;7.15;;;5.47;;
62997;SDS011;55949;52.590;7.330;2022-10-01T04:55:19;8.40;;;5.68;;
62997;SDS011;55949;52.590;7.330;2022-10-01T04:56:21;5.80;;;4.63;;
62997;SDS011;55949;52.590;7.330;2022-10-01T04:57:22;7.57;;;4.57;;
62997;SDS011;55949;52.590;7.330;2022-10-01T04:58:23;6.63;;;5.22;;
62997;SDS011;55949;52.590;7.330;2022-10-01T04:59:23;7.45;;;4.68;;
62997;SDS011;55949;52.590;7.330;2022-10-01T05:00:24;6.97;;;4.80;;
62997;SDS011;55949;52.590;7.330;2022-10-01T05:01:25;7.18;;;4.97;;
62997;SDS011;55949;52.590;7.330;2022-10-01T05:02:26;6.78;;;4.65;;
62997;SDS011;55949;52.590;7.330;2022-10-01T05:03:28;7.03;;;4.03;;
62997;SDS011;55949;52.590;7.330;2022-10-01T05:04:28;6.00;;;4.82;;
62997;SDS011;55949;52.590;7.330;2022-10-01T05:05:29;4.78;;;3.78;;
62997;SDS011;55949;52.590;7.330;2022-10-01T05:06:32;5.25;;;4.13;;
62997;SDS011;55949;52.590;7.330;2022-10-01T05:07:33;6.00;;;3.75;;
62997;SDS011;55949;52.590;7.330;2022-10-01T05:08:34;4.55;;;3.65;;
62997;SDS011;55949;52.590;7.330;2022-10-01T05:09:36;5.97;;;3.97;;
62997;SDS011;55949;52.590;7.330;2022-10-01T05:10:37;4.88;;;3.63;;
62997;SDS011;55949;52.590;7.330;2022-10-01T05:11:38;4.90;;;3.67;;
62997;SDS011;55949;52.590;7.330;2022-10-01T05:12:39;4.35;;;3.55;;
62997;SDS011;55949;52.590;7.330;2022-10-01T05:13:40;6.65;;;3.78;;
62997;SDS011;55949;52.590;7.330;2022-10-01T05:14:41;5.13;;;4.07;;
62997;SDS011;55949;52.590;7.330;2022-10-01T05:15:42;4.97;;;3.80;;
62997;SDS011;55949;52.590;7.330;2022-10-01T05:16:43;4.07;;;3.33;;
62997;SDS011;55949;52.590;7.330;2022-10-01T05:17:45;5.63;;;3.65;;
62997;SDS011;55949;52.590;7.330;2022-10-01T05:18:46;4.53;;;3.58;;
62997;SDS011;55949;52.590;7.330;2022-10-01T05:19:47;4.60;;;3.25;;
62997;SDS011;55949;52.590;7.330;2022-10-01T05:20:49;5.78;;;3.42;;
62997;SDS011;55949;52.590;7.330;2022-10-01T05:21:49;4.95;;;3.17;;
62997;SDS011;55949;52.590;7.330;2022-10-01T05:22:51;4.72;;;3.15;;
62997;SDS011;55949;52.590;7.330;2022-10-01T05:23:53;3.95;;;3.40;;
62997;SDS011;55949;52.590;7.330;2022-10-01T05:24:54;3.80;;;3.05;;
62997;SDS011;55949;52.590;7.330;2022-10-01T05:25:54;4.30;;;3.70;;
62997;SDS011;55949;52.590;7.330;2022-10-01T05:26:55;4.93;;;2.95;;
62997;SDS011;55949;52.590;7.330;2022-10-01T05:28:00;4.55;;;2.78;;
62997;SDS011;55949;52.590;7.330;2022-10-01T05:29:04;5.80;;;3.13;;
62997;SDS011;55949;52.590;7.330;2022-10-01T05:30:06;3.63;;;2.60;;
62997;SDS011;55949;52.590;7.330;2022-10-01T05:31:08;4.00;;;3.10;;
62997;SDS011;55949;52.590;7.330;2022-10-01T05:32:09;4.10;;;3.03;;
62997;SDS011;55949;52.590;7.330;2022-10-01T05:33:11;4.68;;;2.63;;
62997;SDS011;55949;52.590;7.330;2022-10-01T05:34:11;3.45;;;2.80;;
62997;SDS011;55949;52.590;7.330;2022-10-01T05:35:13;4.18;;;2.40;;
62997;SDS011;55949;52.590;7.330;2022-10-01T05:36:13;3.92;;;2.85;;
62997;SDS011;55949;52.590;7.330;2022-10-01T05:37:14;3.22;;;2.38;;
62997;SDS011;55949;52.590;7.330;2022-10-01T05:38:15;3.60;;;2.53;;
62997;SDS011;55949;52.590;7.330;2022-10-01T05:39:15;3.05;;;2.47;;
62997;SDS011;55949;52.590;7.330;2022-10-01T05:40:16;4.40;;;2.85;;
62997;SDS011;55949;52.590;7.330;2022-10-01T05:41:18;6.55;;;3.10;;
62997;SDS011;55949;52.590;7.330;2022-10-01T05:42:19;4.07;;;2.95;;
62997;SDS011;55949;52.590;7.330;2022-10-01T05:43:19;4.45;;;3.45;;
62997;SDS011;55949;52.590;7.330;2022-10-01T05:44:21;3.67;;;2.72;;
62997;SDS011;55949;52.590;7.330;2022-10-01T05:45:22;2.80;;;2.40;;
62997;SDS011;55949;52.590;7.330;2022-10-01T05:46:24;3.95;;;2.80;;
62997;SDS011;55949;52.590;7.330;2022-10-01T05:47:24;4.40;;;2.65;;
62997;SDS011;55949;52.590;7.330;2022-10-01T05:48:25;5.00;;;2.58;;
62997;SDS011;55949;52.590;7.330;2022-10-01T05:49:26;2.45;;;2.17;;
62997;SDS011;55949;52.590;7.330;2022-10-01T05:50:27;3.13;;;2.20;;
62997;SDS011;55949;52.590;7.330;2022-10-01T05:51:32;4.07;;;2.40;;
62997;SDS011;55949;52.590;7.330;2022-10-01T05:52:35;2.65;;;2.28;;
62997;SDS011;55949;52.590;7.330;2022-10-01T05:53:36;3.65;;;2.42;;
62997;SDS011;55949;52.590;7.330;2022-10-01T05:54:37;3.60;;;2.70;;
62997;SDS011;55949;52.590;7.330;2022-10-01T05:55:37;3.60;;;2.53;;
62997;SDS011;55949;52.590;7.330;2022-10-01T05:56:38;3.33;;;2.53;;
62997;SDS011;55949;52.590;7.330;2022-10-01T05:57:39;3.85;;;2.28;;
62997;SDS011;55949;52.590;7.330;2022-10-01T05:58:39;3.97;;;2.40;;
62997;SDS011;55949;52.590;7.330;2022-10-01T05:59:40;3.55;;;2.67;;
62997;SDS011;55949;52.590;7.330;2022-10-01T06:00:41;3.10;;;2.40;;
62997;SDS011;55949;52.590;7.330;2022-10-01T06:01:42;3.53;;;2.47;;
62997;SDS011;55949;52.590;7.330;2022-10-01T06:02:43;3.75;;;2.33;;
62997;SDS011;55949;52.590;7.330;2022-10-01T06:03:50;2.70;;;2.15;;
62997;SDS011;55949;52.590;7.330;2022-10-01T06:04:51;4.32;;;2.40;;
62997;SDS011;55949;52.590;7.330;2022-10-01T06:05:52;2.53;;;2.10;;
62997;SDS011;55949;52.590;7.330;2022-10-01T06:06:53;3.28;;;2.20;;
62997;SDS011;55949;52.590;7.330;2022-10-01T06:07:55;2.75;;;1.95;;
62997;SDS011;55949;52.590;7.330;2022-10-01T06:08:57;2.50;;;1.98;;
62997;SDS011;55949;52.590;7.330;2022-10-01T06:09:58;2.50;;;1.88;;
62997;SDS011;55949;52.590;7.330;2022-10-01T06:11:00;2.75;;;2.30;;
62997;SDS011;55949;52.590;7.330;2022-10-01T06:12:03;2.55;;;2.05;;
62997;SDS011;55949;52.590;7.330;2022-10-01T06:13:04;3.90;;;2.30;;
62997;SDS011;55949;52.590;7.330;2022-10-01T06:14:06;2.33;;;1.77;;
62997;SDS011;55949;52.590;7.330;2022-10-01T06:15:07;2.88;;;2.20;;
62997;SDS011;55949;52.590;7.330;2022-10-01T06:16:11;2.53;;;2.13;;
62997;SDS011;55949;52.590;7.330;2022-10-01T06:17:13;3.42;;;2.08;;
62997;SDS011;55949;52.590;7.330;2022-10-01T06:18:14;3.10;;;2.20;;
62997;SDS011;55949;52.590;7.330;2022-10-01T06:19:15;3.78;;;2.20;;
62997;SDS011;55949;52.590;7.330;2022-10-01T06:20:16;2.40;;;2.08;;
62997;SDS011;55949;52.590;7.330;2022-10-01T06:21:19;4.82;;;2.22;;
62997;SDS011;55949;52.590;7.330;2022-10-01T06:22:20;3.85;;;1.77;;
62997;SDS011;55949;52.590;7.330;2022-10-01T06:23:24;5.00;;;2.03;;
62997;SDS011;55949;52.590;7.330;2022-10-01T06:24:25;2.65;;;2.15;;
62997;SDS011;55949;52.590;7.330;2022-10-01T06:25:26;3.38;;;2.10;;
62997;SDS011;55949;52.590;7.330;2022-10-01T06:26:30;3.85;;;2.20;;
62997;SDS011;55949;52.590;7.330;2022-10-01T06:27:31;3.03;;;2.00;;
62997;SDS011;55949;52.590;7.330;2022-10-01T06:28:32;2.33;;;1.85;;
62997;SDS011;55949;52.590;7.330;2022-10-01T06:29:34;2.75;;;1.92;;
62997;SDS011;55949;52.590;7.330;2022-10-01T06:30:35;3.15;;;2.38;;
62997;SDS011;55949;52.590;7.330;2022-10-01T06:31:37;3.70;;;2.20;;
62997;SDS011;55949;52.590;7.330;2022-10-01T06:32:39;3.95;;;2.30;;
62997;SDS011;55949;52.590;7.330;2022-10-01T06:33:40;2.42;;;2.17;;
62997;SDS011;55949;52.590;7.330;2022-10-01T06:34:41;3.22;;;2.53;;
62997;SDS011;55949;52.590;7.330;2022-10-01T06:35:43;2.65;;;2.17;;
62997;SDS011;55949;52.590;7.330;2022-10-01T06:36:49;3.90;;;2.38;;
62997;SDS011;55949;52.590;7.330;2022-10-01T06:37:52;3.70;;;2.60;;
62997;SDS011;55949;52.590;7.330;2022-10-01T06:38:53;3.63;;;2.63;;
62997;SDS011;55949;52.590;7.330;2022-10-01T06:39:57;3.67;;;2.45;;
62997;SDS011;55949;52.590;7.330;2022-10-01T06:41:01;4.35;;;2.17;;
62997;SDS011;55949;52.590;7.330;2022-10-01T06:42:05;2.83;;;2.53;;
62997;SDS011;55949;52.590;7.330;2022-10-01T06:43:06;5.22;;;2.67;;